createdAt,value
2019-01-21T00:01:05.568Z,102191.20
2019-01-21T00:03:34.686Z,102196.23
2019-01-21T00:06:03.748Z,102201.72
2019-01-21T00:08:32.959Z,102209.03
2019-01-21T00:11:02.110Z,102196.23
2019-01-21T00:13:31.212Z,102199.28
2019-01-21T00:16:00.301Z,102197.75
2019-01-21T00:18:29.384Z,102195.71
2019-01-21T00:20:58.442Z,102196.07
2019-01-21T00:23:27.523Z,102194.52
2019-01-21T00:25:56.596Z,102194.29
2019-01-21T00:28:25.689Z,102196.75
2019-01-21T00:30:54.779Z,102203.64
2019-01-21T00:33:23.888Z,102197.62
2019-01-21T00:35:52.963Z,102190.07
2019-01-21T00:38:22.031Z,102182.52
2019-01-21T00:40:51.115Z,102182.52
2019-01-21T00:43:20.165Z,102186.73
2019-01-21T00:45:49.260Z,102184.05
2019-01-21T00:48:18.312Z,102186.25
2019-01-21T00:50:47.398Z,102184.70
2019-01-21T00:53:16.455Z,102184.70
2019-01-21T00:55:45.779Z,102191.87
2019-01-21T00:58:14.881Z,102188.55
2019-01-21T01:00:44.006Z,102183.02
2019-01-21T01:03:13.057Z,102190.83
2019-01-21T01:05:42.142Z,102188.16
2019-01-21T01:08:11.200Z,102191.98
2019-01-21T01:10:40.286Z,102201.47
2019-01-21T01:13:09.384Z,102200.17
2019-01-21T01:15:38.455Z,102202.63
2019-01-21T01:18:07.546Z,102203.91
2019-01-21T01:20:36.635Z,102211.58
2019-01-21T01:23:05.739Z,102210.05
2019-01-21T01:25:35.028Z,102210.05
2019-01-21T01:28:04.124Z,102217.23
2019-01-21T01:30:33.193Z,102221.73
2019-01-21T01:33:02.242Z,102228.75
2019-01-21T01:35:31.315Z,102226.70
2019-01-21T01:38:00.340Z,102231.45
2019-01-21T01:40:29.439Z,102227.86
2019-01-21T01:42:58.473Z,102238.06
2019-01-21T01:45:28.518Z,102238.50
2019-01-21T01:48:00.000Z,102249.98
2019-01-21T01:50:29.060Z,102250.77
2019-01-21T01:52:58.182Z,102249.38
2019-01-21T01:55:29.105Z,102244.36
2019-01-21T01:57:59.675Z,102248.94
2019-01-21T02:00:28.711Z,102239.33
2019-01-21T02:02:57.850Z,102251.10
2019-01-21T02:05:26.874Z,102244.17
2019-01-21T02:07:55.931Z,102244.69
2019-01-21T02:10:24.990Z,102252.01
2019-01-21T02:12:54.078Z,102243.78
2019-01-21T02:15:23.141Z,102246.34
2019-01-21T02:17:52.462Z,102250.43
2019-01-21T02:20:21.454Z,102245.53
2019-01-21T02:22:52.955Z,102249.66
2019-01-21T02:25:23.746Z,102249.66
2019-01-21T02:28:09.921Z,102255.49
2019-01-21T02:31:38.713Z,102237.67
2019-01-21T02:34:29.008Z,102248.19
2019-01-21T02:37:27.275Z,102237.30
2019-01-21T02:40:32.422Z,102245.38
2019-01-21T02:43:31.095Z,102246.80
2019-01-21T02:46:21.928Z,102246.88
2019-01-21T02:49:06.375Z,102252.66
2019-01-21T02:52:13.267Z,102245.29
2019-01-21T02:55:05.104Z,102243.83
2019-01-21T02:58:12.475Z,102241.52
2019-01-21T03:01:17.414Z,102238.55
2019-01-21T03:04:10.039Z,102233.84
2019-01-21T03:07:10.055Z,102246.35
2019-01-21T03:10:09.563Z,102236.00
2019-01-21T03:13:22.065Z,102226.64
2019-01-21T03:16:20.009Z,102226.64
2019-01-21T03:19:04.018Z,102229.03
2019-01-21T03:22:23.430Z,102228.05
2019-01-21T03:25:32.631Z,102232.22
2019-01-21T03:28:43.605Z,102225.70
2019-01-21T03:31:35.642Z,102229.28
2019-01-21T03:34:40.841Z,102226.69
2019-01-21T03:37:44.208Z,102234.41
2019-01-21T03:40:21.019Z,102226.32
2019-01-21T03:43:22.262Z,102223.36
2019-01-21T03:46:31.086Z,102230.41
2019-01-21T03:49:06.310Z,102228.75
2019-01-21T03:52:19.447Z,102219.31
2019-01-21T03:54:52.497Z,102233.99
2019-01-21T03:57:36.679Z,102229.13
2019-01-21T04:00:26.635Z,102228.88
2019-01-21T04:03:41.499Z,102231.06
2019-01-21T04:06:31.159Z,102226.57
2019-01-21T04:09:42.263Z,102225.45
2019-01-21T04:16:27.970Z,102234.52
2019-01-21T04:19:21.862Z,102234.47
2019-01-21T04:22:26.598Z,102242.80
2019-01-21T04:25:52.072Z,102244.03
2019-01-21T04:28:33.031Z,102240.80
2019-01-21T04:31:42.643Z,102234.80
2019-01-21T04:35:08.219Z,102231.03
2019-01-21T04:38:05.277Z,102234.27
2019-01-21T04:41:24.776Z,102232.27
2019-01-21T04:44:32.267Z,102233.77
2019-01-21T04:47:45.379Z,102234.00
2019-01-21T04:50:50.990Z,102230.63
2019-01-21T04:53:31.944Z,102232.16
2019-01-21T04:56:36.665Z,102221.33
2019-01-21T04:59:41.693Z,102220.94
2019-01-21T05:03:00.933Z,102221.05
2019-01-21T05:06:01.931Z,102225.02
2019-01-21T05:09:20.969Z,102224.08
2019-01-21T05:12:18.940Z,102227.10
2019-01-21T05:15:44.381Z,102235.84
2019-01-21T05:18:49.635Z,102235.68
2019-01-21T05:21:55.745Z,102227.14
2019-01-21T05:24:44.226Z,102231.56
2019-01-21T05:28:00.268Z,102232.38
2019-01-21T05:31:12.201Z,102213.53
2019-01-21T05:34:55.605Z,102221.62
2019-01-21T05:38:07.863Z,102217.00
2019-01-21T05:41:21.543Z,102224.55
2019-01-21T05:44:21.143Z,102225.20
2019-01-21T05:47:33.529Z,102219.59
2019-01-21T05:50:24.286Z,102226.77
2019-01-21T05:53:26.376Z,102228.55
2019-01-21T05:56:29.112Z,102234.31
2019-01-21T05:59:33.431Z,102223.46
2019-01-21T06:02:22.681Z,102223.46
2019-01-21T06:05:20.618Z,102231.91
2019-01-21T06:08:34.594Z,102236.28
2019-01-21T06:11:22.394Z,102233.50
2019-01-21T06:14:31.227Z,102235.77
2019-01-21T06:17:23.013Z,102240.89
2019-01-21T06:20:19.293Z,102235.02
2019-01-21T06:23:31.468Z,102238.08
2019-01-21T06:26:32.036Z,102232.56
2019-01-21T06:29:26.348Z,102251.75
2019-01-21T06:32:39.399Z,102243.17
2019-01-21T06:35:54.594Z,102236.80
2019-01-21T06:38:53.288Z,102238.05
2019-01-21T06:41:59.396Z,102241.08
2019-01-21T06:45:15.509Z,102254.93
2019-01-21T06:48:19.340Z,102246.23
2019-01-21T06:51:31.283Z,102247.01
2019-01-21T06:54:11.130Z,102252.59
2019-01-21T06:57:01.288Z,102246.23
2019-01-21T07:00:26.591Z,102260.70
2019-01-21T07:03:36.636Z,102265.04
2019-01-21T07:06:48.596Z,102263.82
2019-01-21T07:09:39.835Z,102263.82
2019-01-21T07:12:30.272Z,102268.59
2019-01-21T07:15:33.880Z,102270.75
2019-01-21T07:18:41.048Z,102266.91
2019-01-21T07:21:47.304Z,102269.75
2019-01-21T07:24:59.338Z,102280.36
2019-01-21T07:27:37.818Z,102289.56
2019-01-21T07:30:46.140Z,102298.02
2019-01-21T07:34:08.241Z,102300.70
2019-01-21T07:37:17.467Z,102297.02
2019-01-21T07:40:25.301Z,102301.23
2019-01-21T07:43:30.013Z,102300.83
2019-01-21T07:46:58.411Z,102286.81
2019-01-21T07:50:18.170Z,102290.87
2019-01-21T07:53:31.570Z,102296.77
2019-01-21T07:56:21.641Z,102288.89
2019-01-21T07:59:30.442Z,102309.62
2019-01-21T08:02:38.324Z,102316.42
2019-01-21T08:05:47.144Z,102318.61
2019-01-21T08:08:35.056Z,102321.95
2019-01-21T08:11:48.472Z,102335.80
2019-01-21T08:14:45.946Z,102327.40
2019-01-21T08:18:00.881Z,102332.02
2019-01-21T08:20:56.107Z,102322.03
2019-01-21T08:23:53.709Z,102337.91
2019-01-21T08:27:01.227Z,102337.91
2019-01-21T08:30:26.285Z,102334.75
2019-01-21T08:33:29.253Z,102334.75
2019-01-21T08:36:29.418Z,102329.23
2019-01-21T08:39:40.140Z,102330.51
2019-01-21T08:42:25.433Z,102327.44
2019-01-21T08:45:29.847Z,102336.13
2019-01-21T08:48:37.218Z,102331.77
2019-01-21T08:51:20.186Z,102332.98
2019-01-21T08:53:57.920Z,102328.06
2019-01-21T08:56:44.152Z,102336.03
2019-01-21T08:59:42.086Z,102311.13
2019-01-21T09:02:41.237Z,102316.51
2019-01-21T09:05:46.409Z,102320.57
2019-01-21T09:08:48.891Z,102312.59
2019-01-21T09:11:53.749Z,102317.20
2019-01-21T09:14:40.176Z,102316.77
2019-01-21T09:17:51.842Z,102329.16
2019-01-21T09:20:57.958Z,102323.88
2019-01-21T09:24:08.923Z,102327.42
2019-01-21T09:26:56.938Z,102315.41
2019-01-21T09:29:54.550Z,102315.73
2019-01-21T09:33:03.601Z,102326.38
2019-01-21T09:36:09.987Z,102330.58
2019-01-21T09:39:05.719Z,102327.67
2019-01-21T09:42:45.514Z,102325.37
2019-01-21T09:57:28.533Z,102326.54
2019-01-21T09:59:59.986Z,102315.79
2019-01-21T10:02:42.142Z,102321.61
2019-01-21T10:05:15.180Z,102320.67
2019-01-21T10:08:36.376Z,102316.09
2019-01-21T10:11:55.485Z,102318.33
2019-01-21T10:15:01.404Z,102307.63
2019-01-21T10:18:13.285Z,102308.91
2019-01-21T10:21:29.479Z,102302.61
2019-01-21T10:24:49.743Z,102289.81
2019-01-21T10:28:02.852Z,102293.00
2019-01-21T10:30:57.904Z,102281.11
2019-01-21T10:33:54.271Z,102280.52
2019-01-21T10:37:06.148Z,102283.69
2019-01-21T10:40:08.178Z,102284.75
2019-01-21T10:43:08.082Z,102273.03
2019-01-21T10:45:58.537Z,102269.73
2019-01-21T10:49:15.174Z,102264.44
2019-01-21T10:52:10.868Z,102265.32
2019-01-21T10:55:29.737Z,102260.30
2019-01-21T10:58:10.978Z,102242.13
2019-01-21T11:01:12.012Z,102245.92
2019-01-21T11:04:32.031Z,102244.73
2019-01-21T11:07:38.523Z,102242.67
2019-01-21T11:10:19.102Z,102249.22
2019-01-21T11:13:12.078Z,102251.59
2019-01-21T11:16:22.212Z,102246.23
2019-01-21T11:19:22.227Z,102249.21
2019-01-21T11:22:20.342Z,102245.25
2019-01-21T11:25:19.576Z,102239.56
2019-01-21T11:28:35.898Z,102231.30
2019-01-21T11:31:30.519Z,102235.00
2019-01-21T11:34:32.809Z,102237.66
2019-01-21T11:37:48.503Z,102232.70
2019-01-21T11:40:54.700Z,102223.55
2019-01-21T11:44:02.240Z,102230.30
2019-01-21T11:46:56.668Z,102221.05
2019-01-21T11:49:50.515Z,102225.92
2019-01-21T11:52:48.899Z,102218.70
2019-01-21T11:55:48.206Z,102217.82
2019-01-21T11:58:47.889Z,102208.14
2019-01-21T12:01:46.656Z,102204.95
2019-01-21T12:04:40.544Z,102201.55
2019-01-21T12:07:29.492Z,102206.87
2019-01-21T12:10:45.370Z,102198.95
2019-01-21T12:14:00.426Z,102202.02
2019-01-21T12:16:54.438Z,102188.66
2019-01-21T12:19:51.893Z,102186.52
2019-01-21T12:23:01.949Z,102184.02
2019-01-21T12:25:47.777Z,102176.37
2019-01-21T12:28:34.654Z,102152.50
2019-01-21T12:32:12.343Z,102161.52
2019-01-21T12:34:52.728Z,102153.75
2019-01-21T12:37:34.214Z,102160.27
2019-01-21T12:40:43.510Z,102149.05
2019-01-21T12:43:50.907Z,102149.56
2019-01-21T12:47:01.218Z,102149.03
2019-01-21T12:50:07.158Z,102154.33
2019-01-21T12:52:54.606Z,102148.33
2019-01-21T12:55:46.544Z,102149.38
2019-01-21T12:58:34.483Z,102153.62
2019-01-21T13:01:46.262Z,102152.52
2019-01-21T13:05:01.474Z,102148.73
2019-01-21T13:08:17.386Z,102149.23
2019-01-21T13:11:10.512Z,102144.27
2019-01-21T13:14:21.019Z,102138.06
2019-01-21T13:17:17.482Z,102131.35
2019-01-21T13:20:42.850Z,102124.62
2019-01-21T13:23:45.168Z,102120.92
2019-01-21T13:26:46.870Z,102112.05
2019-01-21T13:29:48.653Z,102108.50
2019-01-21T13:32:45.760Z,102105.46
2019-01-21T13:35:49.925Z,102099.58
2019-01-21T13:39:17.412Z,102097.74
2019-01-21T13:42:30.243Z,102091.66
2019-01-21T13:45:49.240Z,102089.08
2019-01-21T13:48:46.525Z,102083.34
2019-01-21T13:52:08.875Z,102075.81
2019-01-21T13:54:56.689Z,102067.89
2019-01-21T13:58:13.014Z,102065.77
2019-01-21T14:01:23.946Z,102062.14
2019-01-21T14:04:21.660Z,102057.17
2019-01-21T14:07:26.475Z,102051.72
2019-01-21T14:10:27.431Z,102050.34
2019-01-21T14:13:19.145Z,102033.01
2019-01-21T14:16:32.905Z,102031.64
2019-01-21T14:19:26.168Z,102025.06
2019-01-21T14:22:47.263Z,102030.74
2019-01-21T14:26:13.107Z,102029.00
2019-01-21T14:29:01.705Z,102025.81
2019-01-21T14:32:05.731Z,102025.48
2019-01-21T14:35:03.676Z,102033.01
2019-01-21T14:38:25.857Z,102028.36
2019-01-21T14:41:34.919Z,102026.34
2019-01-21T14:45:03.615Z,102023.61
2019-01-21T14:51:55.434Z,102015.45
2019-01-21T14:55:01.565Z,102012.30
2019-01-21T14:57:52.923Z,102015.88
2019-01-21T15:01:15.522Z,102006.27
2019-01-21T15:04:06.429Z,101999.03
2019-01-21T15:07:07.294Z,102002.19
2019-01-21T15:10:23.923Z,102002.19
2019-01-21T15:13:24.130Z,102001.09
2019-01-21T15:16:46.897Z,102001.55
2019-01-21T15:20:24.363Z,102011.88
2019-01-21T15:23:23.134Z,102019.43
2019-01-21T15:26:28.607Z,102026.69
2019-01-21T15:29:24.971Z,102029.14
2019-01-21T15:32:34.739Z,102025.90
2019-01-21T15:35:44.899Z,102025.26
2019-01-21T15:38:34.693Z,102014.66
2019-01-21T15:41:40.511Z,102019.14
2019-01-21T15:44:49.329Z,102026.47
2019-01-21T15:47:58.249Z,102016.20
2019-01-21T15:51:19.132Z,102013.63
2019-01-21T15:54:49.281Z,102015.97
2019-01-21T15:57:53.731Z,102008.37
2019-01-21T16:01:06.108Z,101997.77
2019-01-21T16:04:09.219Z,102008.45
2019-01-21T16:06:47.281Z,102008.18
2019-01-21T16:09:54.714Z,102009.44
2019-01-21T16:12:57.886Z,102002.61
2019-01-21T16:16:17.589Z,102001.00
2019-01-21T16:22:41.870Z,101997.46
2019-01-21T16:25:46.650Z,101988.50
2019-01-21T16:28:39.677Z,101994.88
2019-01-21T16:32:30.886Z,101992.91
2019-01-21T16:35:22.503Z,101993.32
2019-01-21T16:41:49.491Z,101982.81
2019-01-21T16:44:26.603Z,101987.00
2019-01-21T16:47:05.947Z,101979.44
2019-01-21T16:49:42.917Z,101974.49
2019-01-21T16:52:29.507Z,101974.80
2019-01-21T16:55:01.085Z,101977.25
2019-01-21T16:57:30.329Z,101974.67
2019-01-21T16:59:59.877Z,101970.23
2019-01-21T17:02:29.097Z,101976.88
2019-01-21T17:04:58.359Z,101966.00
2019-01-21T17:07:27.622Z,101959.34
2019-01-21T17:09:58.131Z,101961.70
2019-01-21T17:12:27.348Z,101960.62
2019-01-21T17:15:25.703Z,101955.98
2019-01-21T17:17:56.732Z,101959.83
2019-01-21T17:20:31.805Z,101967.16
2019-01-21T17:23:09.266Z,101961.61
2019-01-21T17:25:43.365Z,101956.85
2019-01-21T17:28:18.502Z,101950.41
2019-01-21T17:30:58.934Z,101945.06
2019-01-21T17:34:16.786Z,101944.85
2019-01-21T17:36:47.687Z,101936.83
2019-01-21T17:39:23.910Z,101935.98
2019-01-21T17:42:06.103Z,101937.00
2019-01-21T17:44:38.428Z,101933.55
2019-01-21T17:47:12.718Z,101935.42
2019-01-21T17:49:44.560Z,101927.52
2019-01-21T17:52:26.256Z,101935.53
2019-01-21T17:55:02.662Z,101937.25
2019-01-21T17:57:41.444Z,101944.26
2019-01-21T18:00:15.335Z,101937.43
2019-01-21T18:02:44.696Z,101941.51
2019-01-21T18:05:14.079Z,101935.36
2019-01-21T18:07:43.470Z,101935.15
2019-01-21T18:10:13.996Z,101934.77
2019-01-21T18:12:43.220Z,101936.52
2019-01-21T18:15:13.018Z,101938.11
2019-01-21T18:17:42.379Z,101938.93
2019-01-21T18:20:23.413Z,101933.17
2019-01-21T18:23:28.392Z,101943.54
2019-01-21T18:26:46.842Z,101942.53
2019-01-21T18:29:33.357Z,101942.04
2019-01-21T18:32:05.600Z,101941.05
2019-01-21T18:34:38.641Z,101939.92
2019-01-21T18:37:28.719Z,101937.08
2019-01-21T18:39:45.418Z,101935.95
2019-01-21T18:42:14.715Z,101940.50
2019-01-21T18:44:48.596Z,101932.39
2019-01-21T18:47:17.836Z,101929.31
2019-01-21T18:49:48.847Z,101925.33
2019-01-21T18:52:18.060Z,101927.16
2019-01-21T18:54:47.798Z,101922.03
2019-01-21T18:57:17.093Z,101913.43
2019-01-21T18:59:46.504Z,101916.61
2019-01-21T19:02:23.002Z,101914.14
2019-01-21T19:04:54.424Z,101912.44
2019-01-21T19:07:28.270Z,101905.80
2019-01-21T19:10:00.324Z,101896.81
2019-01-21T19:12:29.523Z,101900.87
2019-01-21T19:14:58.765Z,101894.73
2019-01-21T19:17:27.934Z,101895.97
2019-01-21T19:19:57.091Z,101900.50
2019-01-21T19:22:26.348Z,101902.70
2019-01-21T19:24:55.565Z,101895.75
2019-01-21T19:27:24.953Z,101891.86
2019-01-21T19:29:54.285Z,101894.73
2019-01-21T19:32:23.453Z,101892.47
2019-01-21T19:34:52.703Z,101898.92
2019-01-21T19:37:21.925Z,101891.48
2019-01-21T19:39:51.346Z,101883.77
2019-01-21T19:42:20.635Z,101890.42
2019-01-21T19:44:49.812Z,101882.79
2019-01-21T19:47:19.122Z,101882.88
2019-01-21T19:49:48.289Z,101886.86
2019-01-21T19:52:17.597Z,101880.99
2019-01-21T19:54:46.864Z,101881.40
2019-01-21T19:57:16.125Z,101883.72
2019-01-21T19:59:45.309Z,101869.88
2019-01-21T20:02:15.800Z,101880.36
2019-01-21T20:04:44.950Z,101871.78
2019-01-21T20:07:14.440Z,101866.31
2019-01-21T20:09:43.695Z,101858.39
2019-01-21T20:12:14.283Z,101863.37
2019-01-21T20:14:43.427Z,101858.92
2019-01-21T20:17:12.720Z,101864.89
2019-01-21T20:19:41.983Z,101857.45
2019-01-21T20:22:11.398Z,101863.81
2019-01-21T20:24:40.640Z,101850.17
2019-01-21T20:27:09.892Z,101853.69
2019-01-21T20:29:39.079Z,101859.44
2019-01-21T20:32:08.429Z,101854.79
2019-01-21T20:34:37.641Z,101844.00
2019-01-21T20:37:08.849Z,101845.27
2019-01-21T20:39:38.048Z,101837.00
2019-01-21T20:42:07.295Z,101840.14
2019-01-21T20:44:36.618Z,101834.64
2019-01-21T20:47:05.743Z,101838.93
2019-01-21T20:49:34.911Z,101839.05
2019-01-21T20:52:04.072Z,101833.63
2019-01-21T20:54:33.315Z,101826.30
2019-01-21T20:57:02.624Z,101831.16
2019-01-21T20:59:31.831Z,101826.44
2019-01-21T21:02:00.972Z,101829.30
2019-01-21T21:04:30.249Z,101825.96
2019-01-21T21:06:59.391Z,101823.97
2019-01-21T21:09:28.633Z,101822.62
2019-01-21T21:11:57.695Z,101824.86
2019-01-21T21:14:27.608Z,101823.13
2019-01-21T21:16:56.700Z,101819.59
2019-01-21T21:19:25.827Z,101819.76
2019-01-21T21:21:54.931Z,101824.06
2019-01-21T21:24:24.217Z,101817.83
2019-01-21T21:26:54.823Z,101814.29
2019-01-21T21:29:23.968Z,101820.69
2019-01-21T21:31:53.030Z,101817.85
2019-01-21T21:34:22.282Z,101811.11
2019-01-21T21:36:51.429Z,101812.39
2019-01-21T21:39:20.613Z,101811.88
2019-01-21T21:41:49.689Z,101812.56
2019-01-21T21:44:19.147Z,101806.75
2019-01-21T21:46:48.234Z,101799.94
2019-01-21T21:49:17.331Z,101794.27
2019-01-21T21:51:46.412Z,101796.75
2019-01-21T21:54:15.568Z,101789.72
2019-01-21T21:56:44.940Z,101790.08
2019-01-21T21:59:14.379Z,101790.08
2019-01-21T22:01:43.525Z,101781.79
2019-01-21T22:04:12.668Z,101785.13
2019-01-21T22:06:41.898Z,101778.86
2019-01-21T22:09:10.983Z,101783.94
2019-01-21T22:11:40.424Z,101773.73
2019-01-21T22:14:09.435Z,101780.16
2019-01-21T22:16:38.540Z,101774.14
2019-01-21T22:19:07.638Z,101776.52
2019-01-21T22:21:36.938Z,101762.22
2019-01-21T22:24:06.018Z,101765.55
2019-01-21T22:26:35.181Z,101758.58
2019-01-21T22:29:04.277Z,101755.69
2019-01-21T22:31:34.057Z,101756.03
2019-01-21T22:34:03.189Z,101754.38
2019-01-21T22:36:32.308Z,101746.11
2019-01-21T22:39:01.461Z,101741.44
2019-01-21T22:41:30.650Z,101744.25
2019-01-21T22:43:59.794Z,101724.15
2019-01-21T22:46:29.602Z,101726.81
2019-01-21T22:48:58.706Z,101715.66
2019-01-21T22:51:27.835Z,101716.39
2019-01-21T22:53:56.999Z,101717.77
2019-01-21T22:56:26.103Z,101724.96
2019-01-21T22:58:55.331Z,101718.28
2019-01-21T23:01:27.354Z,101717.78
2019-01-21T23:03:56.570Z,101717.77
2019-01-21T23:06:25.775Z,101713.30
2019-01-21T23:08:56.574Z,101702.72
2019-01-21T23:11:27.225Z,101694.75
2019-01-21T23:13:56.459Z,101698.53
2019-01-21T23:16:25.513Z,101691.39
2019-01-21T23:18:54.673Z,101688.44
2019-01-21T23:21:23.749Z,101684.08
2019-01-21T23:23:52.848Z,101690.20
2019-01-21T23:26:22.007Z,101677.13
2019-01-21T23:28:51.264Z,101671.20
2019-01-21T23:31:20.514Z,101669.60
2019-01-21T23:33:49.605Z,101661.59
2019-01-21T23:36:18.783Z,101651.99
2019-01-21T23:38:47.913Z,101652.89
2019-01-21T23:41:17.533Z,101644.88
2019-01-21T23:43:46.657Z,101637.67
2019-01-21T23:46:16.046Z,101648.95
2019-01-21T23:48:45.110Z,101640.86
2019-01-21T23:51:14.278Z,101640.73
2019-01-21T23:53:43.345Z,101634.44
2019-01-21T23:56:12.423Z,101632.53
2019-01-21T23:58:41.533Z,101629.00
